Time;durP1;ratioP1;P1;durP2;ratioP2;P2;SDS_P1;SDS_P2;PMS_P1;PMS_P2;Temp;Humidity;BMP_temperature;BMP_pressure;BME280_temperature;BME280_humidity;BME280_pressure;Samples;Min_cycle;Max_cycle;Signal;HPM_P1;HPM_P2
2024/03/11 00:01:35;;;;;;;41.83;21.17;;;;;;;13.10;49.42;99889.44;4941737;28;96614;-90
2024/03/11 00:04:01;;;;;;;47.30;24.60;;;;;;;13.08;49.59;99883.38;4940538;28;100457;-90
2024/03/11 00:06:29;;;;;;;46.45;22.35;;;;;;;13.07;49.46;99872.91;4940407;28;100253;-90
2024/03/11 00:08:56;;;;;;;44.10;22.23;;;;;;;13.05;49.52;99877.31;4941739;28;96562;-90
2024/03/11 00:11:24;;;;;;;46.63;22.05;;;;;;;13.02;49.50;99880.81;4975741;28;96856;-89
2024/03/11 00:13:50;;;;;;;45.30;24.23;;;;;;;13.02;49.64;99879.97;4959631;28;100396;-90
2024/03/11 00:16:16;;;;;;;48.00;23.65;;;;;;;13.01;49.59;99878.22;4959835;28;100492;-90
2024/03/11 00:18:42;;;;;;;45.67;22.33;;;;;;;13.01;49.49;99886.97;4958406;28;96775;-89
2024/03/11 00:21:08;;;;;;;49.65;24.88;;;;;;;13.01;49.66;99880.84;4950056;28;96755;-90
2024/03/11 00:23:34;;;;;;;46.05;21.77;;;;;;;13.00;49.54;99877.34;4977429;28;97967;-90
2024/03/11 00:25:59;;;;;;;48.22;21.98;;;;;;;12.98;49.68;99873.91;4940984;28;100090;-90
2024/03/11 00:28:25;;;;;;;44.33;21.58;;;;;;;12.97;49.82;99874.78;4941031;28;96550;-90
2024/03/11 00:30:51;;;;;;;47.50;22.00;;;;;;;12.97;49.68;99879.16;4957393;28;96749;-90
2024/03/11 00:33:17;;;;;;;47.40;24.23;;;;;;;12.94;49.69;99877.41;4940466;28;100248;-89
2024/03/11 00:35:45;;;;;;;46.13;22.02;;;;;;;12.90;49.82;99889.69;4940722;28;100478;-91
2024/03/11 00:38:11;;;;;;;47.80;24.65;;;;;;;12.88;49.81;99893.22;4940432;28;96733;-91
2024/03/11 00:40:37;;;;;;;43.42;22.00;;;;;;;12.86;49.74;99888.00;4975525;28;96634;-90
2024/03/11 00:43:04;;;;;;;47.03;22.20;;;;;;;12.82;49.98;99888.06;4958092;28;100212;-90
2024/03/11 00:45:30;;;;;;;46.25;22.83;;;;;;;12.76;49.74;99895.09;4949168;28;100895;-90
2024/03/11 00:47:56;;;;;;;44.22;22.10;;;;;;;12.74;49.99;99901.22;4953468;28;96652;-90
2024/03/11 00:50:21;;;;;;;47.13;22.75;;;;;;;12.72;50.00;99903.00;4957477;28;96904;-90
2024/03/11 00:52:48;;;;;;;47.67;25.17;;;;;;;12.68;49.94;99911.78;4959683;28;100435;-90
2024/03/11 00:55:13;;;;;;;47.55;24.52;;;;;;;12.64;50.07;99896.97;4976713;28;100741;-90
2024/03/11 00:57:41;;;;;;;48.33;22.63;;;;;;;12.59;50.19;99893.56;4953001;28;96858;-88
2024/03/11 01:00:11;;;;;;;46.78;21.77;;;;;;;12.53;50.21;99897.09;4956870;28;96824;-90
2024/03/11 01:02:38;;;;;;;50.03;26.00;;;;;;;12.48;50.28;99907.63;4972021;28;98718;-90
2024/03/11 01:05:05;;;;;;;47.83;24.00;;;;;;;12.46;50.51;99905.88;4955572;28;100621;-90
2024/03/11 01:07:35;;;;;;;47.35;24.88;;;;;;;12.43;50.69;99901.56;4942325;28;96852;-90
2024/03/11 01:10:05;;;;;;;51.25;26.17;;;;;;;12.39;50.57;99897.25;4960604;28;96604;-90
2024/03/11 01:12:30;;;;;;;49.58;24.52;;;;;;;12.35;50.66;99896.41;4926262;28;100826;-90
2024/03/11 01:14:59;;;;;;;46.20;21.52;;;;;;;12.34;50.72;99899.91;4965577;28;97743;-91
2024/03/11 01:17:24;;;;;;;49.25;22.65;;;;;;;12.34;50.74;99901.66;4942544;28;96620;-89
2024/03/11 01:19:50;;;;;;;47.85;24.73;;;;;;;12.31;50.55;99914.75;4957380;28;96773;-89
2024/03/11 01:22:18;;;;;;;49.97;25.20;;;;;;;12.28;50.89;99909.53;4956466;28;100417;-88
2024/03/11 01:24:44;;;;;;;48.50;24.30;;;;;;;12.26;50.93;99909.56;4941759;28;100783;-90
2024/03/11 01:27:14;;;;;;;48.83;23.88;;;;;;;12.26;51.00;99916.53;4942035;28;96753;-90
2024/03/11 01:29:41;;;;;;;51.50;25.27;;;;;;;12.26;51.06;99916.53;4941974;28;96845;-90
2024/03/11 01:32:11;;;;;;;49.38;24.40;;;;;;;12.25;50.92;99917.44;4956972;28;97624;-90
2024/03/11 01:34:38;;;;;;;47.95;23.30;;;;;;;12.20;51.14;99909.63;4941679;28;99192;-90
2024/03/11 01:37:06;;;;;;;48.13;25.60;;;;;;;12.15;51.12;99907.03;4960472;28;96615;-90
2024/03/11 01:39:52;;;;;;;47.10;24.88;;;;;;;12.16;51.20;99905.31;4941852;28;96816;-90
2024/03/11 01:42:19;;;;;;;51.95;25.13;;;;;;;12.14;51.16;99897.47;4957446;28;98864;-89
2024/03/11 01:44:47;;;;;;;50.15;22.73;;;;;;;12.14;51.33;99907.09;4939587;28;99735;-89
2024/03/11 01:47:14;;;;;;;49.67;23.30;;;;;;;12.12;51.34;99903.59;4941610;28;96653;-90
2024/03/11 01:49:42;;;;;;;54.55;24.95;;;;;;;12.10;51.39;99905.34;4953602;28;96719;-87
2024/03/11 01:52:11;;;;;;;52.55;26.65;;;;;;;12.05;51.46;99902.78;4954471;28;97403;-88
2024/03/11 01:54:40;;;;;;;52.35;26.15;;;;;;;12.04;51.59;99901.06;4958747;28;100215;-88
2024/03/11 01:57:08;;;;;;;51.80;24.90;;;;;;;12.04;51.57;99900.19;4944379;28;96996;-88
2024/03/11 01:59:37;;;;;;;49.22;24.20;;;;;;;12.03;51.60;99901.91;4958196;28;96939;-90
2024/03/11 02:02:06;;;;;;;48.38;24.75;;;;;;;11.99;51.68;99902.84;4959101;28;99942;-90
2024/03/11 02:04:33;;;;;;;49.95;26.48;;;;;;;11.97;51.56;99902.84;4945633;28;100064;-87
2024/03/11 02:06:59;;;;;;;46.25;22.80;;;;;;;11.94;51.67;99897.66;4954207;28;96780;-88
2024/03/11 02:09:25;;;;;;;48.28;24.42;;;;;;;11.92;51.56;99898.53;4942142;28;96800;-88
2024/03/11 02:11:51;;;;;;;50.30;24.05;;;;;;;11.89;51.65;99908.97;4936965;28;99956;-87
2024/03/11 02:14:16;;;;;;;50.72;24.20;;;;;;;11.90;51.92;99902.88;4950868;28;100148;-88
2024/03/11 02:16:42;;;;;;;48.97;24.10;;;;;;;11.87;51.86;99901.16;4926767;28;96700;-87
2024/03/11 02:19:12;;;;;;;51.58;25.27;;;;;;;11.84;51.93;99897.72;4956318;28;96862;-88
2024/03/11 02:21:45;;;;;;;46.47;22.25;;;;;;;11.82;51.98;99902.94;4960365;28;100351;-88
2024/03/11 02:24:16;;;;;;;51.08;24.95;;;;;;;11.83;52.16;99907.28;4945832;28;100318;-91
2024/03/11 02:26:45;;;;;;;50.28;24.67;;;;;;;11.84;52.00;99905.56;4956887;28;96665;-90
2024/03/11 02:29:12;;;;;;;50.63;25.77;;;;;;;11.82;52.23;99909.03;4948576;28;96902;-90
2024/03/11 02:31:38;;;;;;;50.78;23.15;;;;;;;11.79;52.11;99914.28;4946210;28;100501;-92
2024/03/11 02:34:05;;;;;;;48.83;22.00;;;;;;;11.80;52.13;99915.16;4951254;28;96663;-90
2024/03/11 02:36:31;;;;;;;50.90;23.27;;;;;;;11.78;52.14;99898.59;4976275;28;96826;-89
2024/03/11 02:38:57;;;;;;;50.53;25.83;;;;;;;11.77;52.19;99915.19;4970949;28;96908;-90
2024/03/11 02:41:23;;;;;;;49.28;22.17;;;;;;;11.74;52.27;99916.03;4962633;28;96587;-90
2024/03/11 02:43:49;;;;;;;51.22;23.25;;;;;;;11.75;52.27;99920.41;4962530;28;99264;-89
2024/03/11 02:46:15;;;;;;;53.50;26.25;;;;;;;11.76;52.54;99918.66;4947652;28;96608;-89
2024/03/11 02:48:40;;;;;;;48.72;22.98;;;;;;;11.75;52.53;99914.31;4954621;28;96924;-87
2024/03/11 02:51:06;;;;;;;51.38;24.08;;;;;;;11.74;52.46;99916.03;4956914;28;99962;-88
2024/03/11 02:53:33;;;;;;;48.97;24.20;;;;;;;11.75;52.55;99920.41;4944788;28;99387;-90
2024/03/11 02:56:07;;;;;;;49.05;24.73;;;;;;;11.77;52.46;99915.19;4964295;28;96669;-90
2024/03/11 02:58:34;;;;;;;49.95;24.20;;;;;;;11.79;52.59;99924.72;4965373;28;96707;-90
2024/03/11 03:01:01;;;;;;;49.95;25.73;;;;;;;11.77;52.74;99920.41;4964039;28;99252;-90
2024/03/11 03:03:27;;;;;;;50.22;25.42;;;;;;;11.77;52.86;99917.78;4965711;28;99726;-89
2024/03/11 03:05:52;;;;;;;50.05;22.67;;;;;;;11.78;52.86;99922.13;4966984;28;96731;-88
2024/03/11 03:08:18;;;;;;;49.78;25.40;;;;;;;11.82;52.76;99923.84;4957986;28;96842;-88
2024/03/11 03:10:44;;;;;;;48.58;24.60;;;;;;;11.82;52.96;99913.41;4945190;28;100663;-90
2024/03/11 03:13:10;;;;;;;52.20;24.98;;;;;;;11.86;52.76;99914.25;4953186;28;99157;-90
2024/03/11 03:15:36;;;;;;;44.72;21.75;;;;;;;11.88;52.96;99915.94;4958414;28;96642;-90
2024/03/11 03:18:01;;;;;;;45.80;24.08;;;;;;;11.91;52.77;99902.03;4965594;28;96700;-88
2024/03/11 03:20:27;;;;;;;46.72;22.38;;;;;;;11.93;52.92;99906.38;4974283;28;99970;-88
2024/03/11 03:22:52;;;;;;;49.08;22.73;;;;;;;11.92;53.01;99904.63;4941968;28;99230;-88
2024/03/11 03:25:18;;;;;;;50.33;22.95;;;;;;;11.94;52.89;99908.13;4947958;28;97184;-89
2024/03/11 03:27:43;;;;;;;46.03;22.67;;;;;;;11.93;52.83;99908.13;4945796;28;96876;-88
2024/03/11 03:30:09;;;;;;;49.63;25.17;;;;;;;11.92;52.80;99903.75;4944864;28;100454;-92
2024/03/11 03:32:35;;;;;;;47.45;24.90;;;;;;;11.92;52.94;99914.22;4946817;28;99271;-90
2024/03/11 03:35:05;;;;;;;49.97;25.45;;;;;;;11.91;53.06;99917.72;4962027;28;96601;-90
2024/03/11 03:37:31;;;;;;;48.20;22.77;;;;;;;11.93;52.98;99926.41;4958298;28;96775;-90
2024/03/11 03:39:56;;;;;;;47.15;22.73;;;;;;;11.91;52.99;99910.75;5002134;28;97699;-90
2024/03/11 03:42:22;;;;;;;44.53;21.60;;;;;;;11.92;53.06;99917.69;4985251;28;100873;-91
2024/03/11 03:44:48;;;;;;;46.55;24.13;;;;;;;11.93;52.83;99921.19;4961915;28;96819;-88
2024/03/11 03:47:15;;;;;;;49.80;22.10;;;;;;;11.90;53.00;99914.22;4942602;28;96948;-88
2024/03/11 03:49:40;;;;;;;47.88;24.05;;;;;;;11.89;53.20;99919.41;4944605;28;100082;-90
2024/03/11 03:52:06;;;;;;;48.25;21.85;;;;;;;11.90;53.08;99922.06;4961457;28;97493;-87
2024/03/11 03:54:31;;;;;;;47.53;22.65;;;;;;;11.90;53.15;99919.44;4950568;28;96792;-88
2024/03/11 03:56:57;;;;;;;48.03;22.35;;;;;;;11.91;53.17;99912.50;4945418;28;96723;-88
2024/03/11 03:59:22;;;;;;;46.88;21.67;;;;;;;11.90;53.33;99911.59;4954680;28;99413;-88
2024/03/11 04:01:48;;;;;;;48.75;24.92;;;;;;;11.89;53.39;99919.41;4977742;28;99853;-89
2024/03/11 04:04:14;;;;;;;46.45;22.23;;;;;;;11.88;53.54;99918.56;4970687;28;96740;-89
2024/03/11 04:06:40;;;;;;;52.63;25.50;;;;;;;11.87;53.44;99918.56;4943242;28;96825;-89
2024/03/11 04:09:08;;;;;;;52.03;25.80;;;;;;;11.86;53.56;99915.09;4953489;28;100914;-88
2024/03/11 04:11:35;;;;;;;47.45;23.77;;;;;;;11.84;53.58;99927.31;4938836;28;99886;-88
2024/03/11 04:14:02;;;;;;;52.40;26.35;;;;;;;11.81;53.64;99933.41;4957159;28;96781;-88
2024/03/11 04:16:28;;;;;;;54.83;24.70;;;;;;;11.77;53.83;99928.25;4964105;28;96706;-88
2024/03/11 04:18:54;;;;;;;51.35;23.42;;;;;;;11.72;53.97;99932.63;4979879;28;97824;-88
2024/03/11 04:21:21;;;;;;;53.80;26.67;;;;;;;11.68;53.88;99929.16;4943409;28;100532;-87
2024/03/11 04:23:50;;;;;;;54.10;24.30;;;;;;;11.65;54.16;99918.72;4953397;28;96893;-88
2024/03/11 04:26:16;;;;;;;52.92;26.50;;;;;;;11.61;54.35;99923.09;4950246;28;96689;-89
2024/03/11 04:28:43;;;;;;;52.53;25.77;;;;;;;11.58;54.61;99928.34;4956825;28;97569;-88
2024/03/11 04:31:09;;;;;;;51.75;26.15;;;;;;;11.57;54.50;99923.16;4950755;28;100186;-88
2024/03/11 04:33:35;;;;;;;50.45;24.27;;;;;;;11.56;54.77;99924.88;4965713;28;96690;-91
2024/03/11 04:36:01;;;;;;;55.40;28.25;;;;;;;11.55;54.79;99924.88;4958651;28;96614;-90
2024/03/11 04:38:26;;;;;;;58.40;28.65;;;;;;;11.53;54.92;99922.31;4942693;28;99773;-88
2024/03/11 04:40:52;;;;;;;53.70;27.50;;;;;;;11.51;55.14;99926.66;4940840;28;100469;-90
2024/03/11 04:43:18;;;;;;;52.33;25.48;;;;;;;11.49;54.99;99917.09;4940918;28;96603;-87
2024/03/11 04:45:43;;;;;;;56.25;24.65;;;;;;;11.48;55.18;99918.84;4946765;28;96863;-88
2024/03/11 04:48:13;;;;;;;54.13;26.25;;;;;;;11.50;55.19;99922.31;4946055;28;100437;-88
2024/03/11 04:50:40;;;;;;;55.80;25.65;;;;;;;11.50;55.17;99929.28;4958788;28;100634;-90
2024/03/11 04:53:06;;;;;;;50.83;24.17;;;;;;;11.50;55.33;99926.69;4979532;28;96721;-90
2024/03/11 04:55:34;;;;;;;54.58;26.92;;;;;;;11.50;55.52;99924.94;4965279;28;96796;-90
2024/03/11 04:58:00;;;;;;;49.03;24.48;;;;;;;11.51;55.55;99931.88;4946178;28;100745;-91
2024/03/11 05:00:27;;;;;;;56.25;26.08;;;;;;;11.49;55.48;99933.63;4964567;28;99699;-90
2024/03/11 05:02:57;;;;;;;51.47;27.40;;;;;;;11.48;55.87;99937.13;4977665;28;96866;-91
2024/03/11 05:05:36;;;;;;;54.38;25.20;;;;;;;11.48;55.63;99933.63;4944029;28;96828;-91
2024/03/11 05:08:05;;;;;;;55.08;25.30;;;;;;;11.49;55.55;99940.59;4960961;28;97861;-90
2024/03/11 05:10:31;;;;;;;51.55;25.77;;;;;;;11.50;55.71;99937.97;4944666;28;100589;-90
2024/03/11 05:12:58;;;;;;;54.92;28.67;;;;;;;11.52;55.64;99938.84;4945887;28;96695;-91
2024/03/11 05:15:26;;;;;;;56.45;26.50;;;;;;;11.54;55.67;99937.06;4975468;28;96770;-90
2024/03/11 05:17:52;;;;;;;52.75;25.17;;;;;;;11.56;55.80;99948.38;4979208;28;96802;-90
2024/03/11 05:20:19;;;;;;;53.30;25.00;;;;;;;11.58;55.64;99954.47;4948822;28;97799;-91
2024/03/11 05:22:46;;;;;;;54.15;25.45;;;;;;;11.60;55.61;99947.50;4925159;28;96641;-88
2024/03/11 05:25:14;;;;;;;57.03;28.20;;;;;;;11.60;55.67;99950.13;4941055;28;96688;-87
2024/03/11 05:27:41;;;;;;;57.25;26.95;;;;;;;11.58;55.98;99951.84;4946540;28;100420;-89
2024/03/11 05:30:10;;;;;;;57.40;27.83;;;;;;;11.57;55.88;99954.50;4982652;28;97609;-90
2024/03/11 05:32:36;;;;;;;;;;;;;;;11.50;55.50;99956.25;4965439;28;96711;-90
2024/03/11 05:35:01;;;;;;;56.83;26.67;;;;;;;11.53;55.77;99961.47;4967324;28;96735;-88
2024/03/11 05:37:27;;;;;;;53.10;24.75;;;;;;;11.53;55.83;99963.19;4955309;28;100241;-90
2024/03/11 05:39:54;;;;;;;61.10;26.77;;;;;;;11.50;55.99;99960.63;4959485;28;97595;-90
2024/03/11 05:42:23;;;;;;;58.95;27.95;;;;;;;11.49;56.42;99966.72;4958504;28;96737;-89
2024/03/11 05:44:49;;;;;;;60.30;29.05;;;;;;;11.47;56.39;99974.56;4984078;28;96786;-87
2024/03/11 05:47:15;;;;;;;59.70;26.67;;;;;;;11.44;56.53;99977.16;4973700;28;97891;-87
2024/03/11 05:49:41;;;;;;;59.63;29.88;;;;;;;11.40;56.45;99967.63;4961299;28;100581;-89
2024/03/11 05:52:09;;;;;;;60.17;28.40;;;;;;;11.40;56.59;99972.84;4948539;28;96811;-90
2024/03/11 05:54:38;;;;;;;64.07;29.08;;;;;;;11.40;56.96;99978.06;4953764;28;96824;-90
2024/03/11 05:57:08;;;;;;;59.75;26.40;;;;;;;11.41;56.73;99985.91;4979740;28;98070;-88
2024/03/11 05:59:34;;;;;;;55.67;27.00;;;;;;;11.42;57.00;99989.38;4976252;28;100482;-87
2024/03/11 06:01:59;;;;;;;55.83;26.05;;;;;;;11.41;56.86;99979.81;4959834;28;96736;-87
2024/03/11 06:04:28;;;;;;;58.92;29.08;;;;;;;11.42;56.98;99989.38;4961844;28;96676;-88
2024/03/11 06:06:54;;;;;;;59.47;28.65;;;;;;;11.44;57.10;99995.44;4980711;28;97485;-88
2024/03/11 06:09:20;;;;;;;56.20;27.77;;;;;;;11.46;56.99;99993.72;4939050;28;100726;-88
2024/03/11 06:11:47;;;;;;;57.35;28.42;;;;;;;11.47;56.95;99995.44;4941932;28;96733;-89
2024/03/11 06:14:13;;;;;;;57.60;26.67;;;;;;;11.47;56.92;99997.19;4943537;28;96912;-88
2024/03/11 06:16:43;;;;;;;60.78;28.33;;;;;;;11.43;57.22;100005.03;4972549;28;97794;-88
2024/03/11 06:19:10;;;;;;;59.10;28.80;;;;;;;11.43;57.06;99996.34;4934643;28;99835;-88
2024/03/11 06:21:37;;;;;;;56.42;28.15;;;;;;;11.41;57.23;100003.31;4932134;28;96737;-88
2024/03/11 06:24:03;;;;;;;60.08;29.42;;;;;;;11.38;57.33;100012.00;4937242;28;96980;-87
2024/03/11 06:26:29;;;;;;;57.40;26.70;;;;;;;11.38;57.29;100013.78;4946375;28;100165;-87
2024/03/11 06:29:00;;;;;;;53.85;28.08;;;;;;;11.37;57.26;100017.25;4962897;28;100321;-88
2024/03/11 06:31:26;;;;;;;56.50;25.85;;;;;;;11.38;57.30;100026.81;4937422;28;97013;-90
2024/03/11 06:33:52;;;;;;;56.10;26.52;;;;;;;11.37;57.53;100025.06;4954545;28;96646;-89
2024/03/11 06:36:18;;;;;;;61.45;27.40;;;;;;;11.39;57.75;100029.44;4931641;28;100701;-85
2024/03/11 06:38:48;;;;;;;60.28;28.05;;;;;;;11.40;57.52;100031.16;4960555;28;99831;-87
2024/03/11 06:41:17;;;;;;;55.70;26.52;;;;;;;11.42;57.51;100036.38;4936431;28;96827;-88
2024/03/11 06:43:47;;;;;;;58.65;29.08;;;;;;;11.43;57.67;100035.50;4943892;28;97431;-89
2024/03/11 06:46:15;;;;;;;59.63;27.80;;;;;;;11.44;57.72;100042.44;4946166;28;98916;-89
2024/03/11 06:48:41;;;;;;;63.13;27.10;;;;;;;11.45;57.69;100041.59;4927731;28;100507;-89
2024/03/11 06:51:08;;;;;;;58.92;26.40;;;;;;;11.47;57.75;100045.06;4949422;28;97322;-87
2024/03/11 06:53:34;;;;;;;61.90;26.88;;;;;;;11.49;57.89;100045.06;4943425;28;97030;-88
2024/03/11 06:56:00;;;;;;;58.80;29.23;;;;;;;11.51;57.82;100045.91;4945812;28;98061;-88
2024/03/11 06:58:27;;;;;;;58.92;27.92;;;;;;;11.54;58.03;100053.75;4943864;28;100166;-90
2024/03/11 07:00:52;;;;;;;59.25;27.38;;;;;;;11.57;57.89;100053.75;4940541;28;97010;-91
2024/03/11 07:03:18;;;;;;;60.47;29.92;;;;;;;11.56;57.84;100052.84;4976166;28;96868;-90
2024/03/11 07:05:44;;;;;;;59.63;28.83;;;;;;;11.57;57.98;100061.59;4953942;28;100569;-91
2024/03/11 07:08:09;;;;;;;61.20;27.92;;;;;;;11.60;57.99;100065.03;4961872;28;99996;-90
2024/03/11 07:10:35;;;;;;;58.78;29.10;;;;;;;11.60;57.96;100069.38;4959271;28;96903;-89
2024/03/11 07:13:01;;;;;;;58.65;26.65;;;;;;;11.60;57.94;100070.28;4935495;28;96832;-91
2024/03/11 07:15:28;;;;;;;57.28;26.50;;;;;;;11.60;57.92;100067.66;4957020;28;100125;-91
2024/03/11 07:17:54;;;;;;;59.30;27.05;;;;;;;11.58;58.10;100068.53;4957883;28;96781;-90
2024/03/11 07:20:23;;;;;;;61.53;28.58;;;;;;;11.56;57.93;100071.13;4951665;28;96768;-88
2024/03/11 07:22:50;;;;;;;57.55;28.13;;;;;;;11.57;58.08;100078.09;4951129;28;96765;-87
2024/03/11 07:25:17;;;;;;;64.18;28.17;;;;;;;11.58;58.06;100079.81;4948433;28;100260;-87
2024/03/11 07:27:50;;;;;;;57.88;26.05;;;;;;;11.58;58.22;100074.59;4949072;28;97725;-86
2024/03/11 07:30:22;;;;;;;56.28;27.38;;;;;;;11.58;58.15;100071.13;4950700;28;97061;-87
2024/03/11 07:33:01;;;;;;;57.78;26.38;;;;;;;11.58;58.41;100074.59;4958655;28;96909;-87
2024/03/11 07:35:27;;;;;;;60.42;28.15;;;;;;;11.57;58.52;100069.41;4939849;28;100417;-86
2024/03/11 07:37:52;;;;;;;61.03;28.05;;;;;;;11.57;58.68;100072.88;4933418;28;99112;-87
2024/03/11 07:40:18;;;;;;;54.35;26.95;;;;;;;11.57;58.37;100070.28;4945391;28;96856;-88
2024/03/11 07:42:44;;;;;;;63.65;29.63;;;;;;;11.57;58.66;100078.09;4949288;28;97039;-87
2024/03/11 07:45:12;;;;;;;63.42;30.00;;;;;;;11.58;58.71;100082.44;4931442;28;100232;-88
2024/03/11 07:47:39;;;;;;;59.17;27.10;;;;;;;11.57;58.74;100075.50;4945319;28;97930;-88
2024/03/11 07:50:05;;;;;;;61.80;28.63;;;;;;;11.58;58.73;100087.66;4949492;28;96876;-89
2024/03/11 07:52:31;;;;;;;62.28;30.48;;;;;;;11.56;59.00;100084.19;4945766;28;96890;-89
2024/03/11 07:54:56;;;;;;;68.43;31.10;;;;;;;11.54;58.71;100085.94;4931987;28;100314;-88
2024/03/11 07:57:22;;;;;;;64.55;30.98;;;;;;;11.53;58.96;100092.06;4933944;28;100368;-88
2024/03/11 07:59:47;;;;;;;66.18;30.17;;;;;;;11.54;58.95;100093.78;4944380;28;96975;-89
2024/03/11 08:02:15;;;;;;;60.40;27.30;;;;;;;11.55;58.80;100098.16;4961739;28;96948;-88
2024/03/11 08:04:41;;;;;;;64.40;27.48;;;;;;;11.55;59.12;100095.53;4945899;28;100742;-88
2024/03/11 08:07:06;;;;;;;59.72;26.95;;;;;;;11.55;58.93;100090.31;4942761;28;99822;-88
2024/03/11 08:09:33;;;;;;;58.75;28.73;;;;;;;11.57;59.07;100100.75;4931223;28;96889;-89
2024/03/11 08:11:59;;;;;;;61.45;27.27;;;;;;;11.59;58.98;100097.25;4946324;28;96966;-88
2024/03/11 08:14:25;;;;;;;60.47;26.35;;;;;;;11.61;59.00;100097.25;4928583;28;100652;-88
2024/03/11 08:16:51;;;;;;;66.28;30.85;;;;;;;11.61;58.80;100094.63;4932223;28;100236;-88
2024/03/11 08:19:18;;;;;;;64.57;27.38;;;;;;;11.61;59.16;100099.88;4931042;28;97024;-88
2024/03/11 08:21:43;;;;;;;69.65;31.92;;;;;;;11.61;59.27;100092.88;4936556;28;96892;-88
2024/03/11 08:24:11;;;;;;;66.80;28.90;;;;;;;11.62;59.33;100098.97;4934843;28;98852;-88
2024/03/11 08:26:37;;;;;;;65.15;29.55;;;;;;;11.62;59.40;100102.47;4927006;28;99476;-88
2024/03/11 08:29:03;;;;;;;58.75;26.67;;;;;;;11.61;59.40;100108.56;4924890;28;96899;-88
2024/03/11 08:31:29;;;;;;;59.67;29.08;;;;;;;11.61;59.18;100103.34;4924057;28;97033;-88
2024/03/11 08:33:55;;;;;;;60.90;29.88;;;;;;;11.63;59.26;100119.88;4928723;28;100928;-88
2024/03/11 08:36:20;;;;;;;62.67;30.17;;;;;;;11.62;59.33;100123.38;4944821;28;100674;-88
2024/03/11 08:38:46;;;;;;;65.28;32.38;;;;;;;11.60;59.16;100122.50;4925546;28;97421;-88
2024/03/11 08:41:14;;;;;;;67.80;31.55;;;;;;;11.57;59.32;100122.50;4944639;28;97040;-89
2024/03/11 08:43:39;;;;;;;67.93;31.15;;;;;;;11.54;59.42;100132.97;4943284;28;98034;-89
2024/03/11 08:46:05;;;;;;;66.18;31.92;;;;;;;11.52;59.51;100136.47;4943883;28;96903;-88
2024/03/11 08:48:31;;;;;;;59.58;29.15;;;;;;;11.49;59.37;100137.31;4933390;28;96884;-89
2024/03/11 08:50:57;;;;;;;59.17;27.17;;;;;;;11.48;59.34;100140.81;4947185;28;96854;-89
2024/03/11 08:53:24;;;;;;;60.22;27.13;;;;;;;11.46;59.23;100137.34;4933150;28;100255;-88
2024/03/11 08:55:50;;;;;;;61.58;28.05;;;;;;;11.45;59.64;100139.97;4965084;28;100763;-92
2024/03/11 08:58:19;;;;;;;59.63;25.95;;;;;;;11.43;59.52;100140.81;4957077;28;96763;-90
2024/03/11 09:00:45;;;;;;;61.15;28.00;;;;;;;11.39;59.68;100143.44;4950325;28;96944;-90
2024/03/11 09:03:12;;;;;;;70.45;32.55;;;;;;;11.35;59.80;100150.41;4932583;28;100489;-90
2024/03/11 09:05:40;;;;;;;67.25;28.77;;;;;;;11.32;59.80;100146.94;4932831;28;99645;-91
2024/03/11 09:08:05;;;;;;;67.65;31.98;;;;;;;11.30;60.02;100146.97;4945870;28;96801;-90
2024/03/11 09:10:31;;;;;;;63.42;28.02;;;;;;;11.32;60.31;100154.75;4948525;28;96805;-91
2024/03/11 09:12:58;;;;;;;69.28;31.98;;;;;;;11.35;60.31;100154.75;4965075;28;98897;-91
2024/03/11 09:15:24;;;;;;;72.80;33.15;;;;;;;11.38;60.24;100146.94;4929375;28;99036;-90
2024/03/11 09:17:51;;;;;;;65.00;30.40;;;;;;;11.37;60.30;100153.91;4960141;28;96990;-90
2024/03/11 09:20:19;;;;;;;71.75;32.03;;;;;;;11.38;60.43;100158.25;4943049;28;96897;-91
2024/03/11 09:22:47;;;;;;;59.05;29.88;;;;;;;11.40;60.49;100150.41;4924360;28;100460;-91
2024/03/11 09:25:17;;;;;;;64.40;30.48;;;;;;;11.41;60.54;100160.00;4927904;28;99275;-90
2024/03/11 09:27:45;;;;;;;70.93;32.25;;;;;;;11.42;60.59;100164.31;4936448;28;96934;-91
2024/03/11 09:30:11;;;;;;;66.53;31.27;;;;;;;11.42;60.56;100164.31;4943302;28;96814;-91
2024/03/11 09:32:37;;;;;;;66.53;29.48;;;;;;;11.41;60.64;100168.69;4946621;28;100389;-91
2024/03/11 09:35:05;;;;;;;61.83;28.60;;;;;;;11.43;60.59;100163.47;4949121;28;100686;-91
2024/03/11 09:37:34;;;;;;;67.97;31.00;;;;;;;11.47;60.71;100161.72;4949007;28;96868;-91
2024/03/11 09:40:01;;;;;;;65.43;29.05;;;;;;;11.49;60.55;100176.50;4931470;28;96977;-87
2024/03/11 09:42:30;;;;;;;61.95;28.23;;;;;;;11.53;60.62;100170.41;4940395;28;100866;-89
2024/03/11 09:44:56;;;;;;;59.47;27.77;;;;;;;11.56;60.52;100177.38;4925357;28;100035;-89
2024/03/11 09:47:24;;;;;;;65.60;29.27;;;;;;;11.59;60.63;100183.44;4944025;28;96845;-88
2024/03/11 09:49:50;;;;;;;66.97;29.42;;;;;;;11.59;60.54;100186.06;4934201;28;96983;-87
2024/03/11 09:52:20;;;;;;;66.88;27.85;;;;;;;11.59;60.52;100190.44;4941613;28;97919;-88
2024/03/11 09:54:46;;;;;;;63.47;29.27;;;;;;;11.57;60.42;100198.25;4933298;28;100556;-88
2024/03/11 09:57:13;;;;;;;58.28;25.85;;;;;;;11.56;60.13;100201.72;4942267;28;97012;-90
2024/03/11 09:59:42;;;;;;;63.00;28.15;;;;;;;11.53;60.26;100203.47;4954458;28;96895;-90
2024/03/11 10:02:14;;;;;;;69.78;28.20;;;;;;;11.48;60.62;100206.13;4930212;28;100520;-90
2024/03/11 10:04:40;;;;;;;65.88;27.95;;;;;;;11.48;60.33;100206.13;4948819;28;99998;-91
2024/03/11 10:07:08;;;;;;;70.35;30.05;;;;;;;11.49;60.36;100212.19;4931436;28;96794;-91
2024/03/11 10:09:44;;;;;;;65.00;29.77;;;;;;;11.45;60.59;100208.72;4953543;28;96890;-91
2024/03/11 10:12:11;;;;;;;65.95;30.33;;;;;;;11.43;60.68;100208.72;4931871;28;100398;-90
2024/03/11 10:14:40;;;;;;;63.05;27.20;;;;;;;11.43;60.84;100211.34;4947459;28;99959;-90
2024/03/11 10:17:28;;;;;;;72.45;30.83;;;;;;;11.44;60.99;100212.19;4932272;28;96844;-92
2024/03/11 10:20:00;;;;;;;77.20;28.40;;;;;;;11.49;61.08;100218.28;4962131;28;96708;-92
2024/03/11 10:22:47;;;;;;;64.00;30.60;;;;;;;11.49;60.89;100213.06;4934293;28;100767;-95
2024/03/11 10:25:21;;;;;;;69.65;31.70;;;;;;;11.53;61.15;100209.59;4933845;28;100061;-91
2024/03/11 10:27:47;;;;;;;65.18;30.08;;;;;;;11.51;60.92;100211.31;4944054;28;96765;-93
2024/03/11 10:30:20;;;;;;;63.88;28.02;;;;;;;11.50;60.87;100217.44;4933246;28;96951;-94
2024/03/11 10:32:56;;;;;;;67.75;29.98;;;;;;;11.50;60.89;100216.56;4939318;28;99925;-93
2024/03/11 10:35:23;;;;;;;67.18;27.77;;;;;;;11.50;61.20;100219.19;4928425;28;100565;-91
2024/03/11 10:37:50;;;;;;;62.28;29.45;;;;;;;11.50;61.21;100211.34;4944279;28;96969;-91
2024/03/11 10:40:19;;;;;;;63.08;29.25;;;;;;;11.52;61.18;100213.06;4926148;28;96849;-88
2024/03/11 10:42:53;;;;;;;64.13;29.58;;;;;;;11.55;61.31;100218.28;4941910;28;100639;-88
2024/03/11 10:45:35;;;;;;;69.45;30.90;;;;;;;11.57;61.32;100219.16;4942324;28;97958;-88
2024/03/11 10:48:01;;;;;;;70.15;29.67;;;;;;;11.61;61.34;100223.50;4950227;28;96879;-89
2024/03/11 10:50:34;;;;;;;69.10;30.25;;;;;;;11.64;61.25;100230.47;4939742;28;96850;-90
2024/03/11 10:53:03;;;;;;;69.05;29.30;;;;;;;11.65;61.19;100229.59;4928916;28;101180;-89
2024/03/11 10:55:32;;;;;;;64.63;28.52;;;;;;;11.66;61.34;100230.44;4933433;28;99700;-89
2024/03/11 10:57:59;;;;;;;;;;;;;;;11.63;60.94;100231.31;4932427;28;96895;-89
2024/03/11 11:00:26;;;;;;;57.97;26.75;;;;;;;11.68;61.00;100239.19;4943562;28;96898;-89
2024/03/11 11:03:12;;;;;;;63.70;28.23;;;;;;;11.67;61.25;100232.19;4941690;28;99979;-91
2024/03/11 11:05:52;;;;;;;56.63;25.58;;;;;;;11.67;61.01;100226.97;4931746;28;100309;-89
2024/03/11 11:08:29;;;;;;;64.80;28.88;;;;;;;11.68;60.97;100242.66;4943716;28;96924;-89
2024/03/11 11:10:57;;;;;;;57.40;25.17;;;;;;;11.68;61.21;100244.41;4955088;28;96860;-90
2024/03/11 11:13:25;;;;;;;64.18;26.48;;;;;;;11.69;61.11;100239.16;4948620;28;98048;-89